Daitoku Maru — JD3111 — position and weather

sailwx.info

Track history (hours):
 
Tides and Currents Weather Stations Pressure Air Temp Water Temp Dewpoint Dewpoint Depression Visibility Wind Speed Wind Dir Waves Ship Positions

Daitoku Maru

Last reported at 2018-Jan-22 13:16 UTC. Time now 2018-Jan-23 00:08 UTC.
Position N 34°03' E 132°47'.

Length 63 m; draft 3.5 m.

Type: Cargo ship. MMSI: 431001826.

Date/timePositionNaut miles runAvg speedWind from/ knotsBaromVisibWave heightAir tempDewpointWater temp
2018-Jan-22 13:16N 34°03' E 132°47'311.7
2018-Jan-22 13:00N 34°01' E 132°45'511.0
2018-Jan-22 12:30N 33°56' E 132°41'1110.8
2018-Jan-22 11:28N 33°49' E 132°31'510.6
2018-Jan-22 10:58N 33°46' E 132°26'510.3
2018-Jan-22 10:29N 33°43' E 132°21'2310.1
2018-Jan-22 08:13N 33°30' E 131°58'2 9.8
2018-Jan-22 08:00N 33°29' E 131°56'5 9.9
2018-Jan-22 07:29N 33°27' E 131°50'610.1
2018-Jan-22 06:53N 33°23' E 131°45'410.3
2018-Jan-22 06:30N 33°20' E 131°42'4 0.9
2018-Jan-22 02:10N 33°16' E 131°40'0 0.1
2018-Jan-22 01:49N 33°16' E 131°40'0 0.0
2018-Jan-22 01:21N 33°16' E 131°40'0 0.0
2018-Jan-22 00:58N 33°16' E 131°40'0 0.0
2018-Jan-22 00:04N 33°16' E 131°40'0 0.0
2018-Jan-21 23:21N 33°16' E 131°40'0 0.0
2018-Jan-21 22:42N 33°16' E 131°40'0 0.0
2018-Jan-21 19:41N 33°16' E 131°40'0 0.0
2018-Jan-21 19:30N 33°16' E 131°40'0 0.0
2018-Jan-21 18:52N 33°16' E 131°40'0 0.5
2018-Jan-21 18:28N 33°16' E 131°40'1 3.0
2018-Jan-21 17:59N 33°17' E 131°39'3 5.2
2018-Jan-21 17:30N 33°15' E 131°41'0 0.0
2018-Jan-20 23:47N 33°15' E 131°41'2 4.7
2018-Jan-20 23:27N 33°17' E 131°41'5 9.9
2018-Jan-20 22:59N 33°21' E 131°41'0 0.7
2018-Jan-20 22:25N 33°22' E 131°41'0 0.0
2018-Jan-20 21:43N 33°22' E 131°41'0 0.0
2018-Jan-20 21:25N 33°22' E 131°41'0 0.0
2018-Jan-20 20:55N 33°22' E 131°41'0 0.0
2018-Jan-20 19:55N 33°22' E 131°41'0 0.0
2018-Jan-20 17:25N 33°22' E 131°41'0 0.0
2018-Jan-20 16:55N 33°22' E 131°41'0 0.0
2018-Jan-20 15:25N 33°22' E 131°41'0 0.0
2018-Jan-20 14:55N 33°22' E 131°41'0 0.1
2018-Jan-20 14:31N 33°22' E 131°41'1011.0
2018-Jan-20 13:38N 33°25' E 131°52'2611.2
2018-Jan-20 11:19N 33°41' E 132°17'511.4
2018-Jan-20 10:51N 33°44' E 132°22'511.6
2018-Jan-20 10:23N 33°47' E 132°27'511.7
2018-Jan-20 10:00N 33°50' E 132°32'611.9
2018-Jan-20 09:31N 33°54' E 132°37'612.8
2018-Jan-20 09:00N 33°58' E 132°43'4 0.2
2018-Jan-19 11:21N 34°01' E 132°46'411.9
2018-Jan-19 11:00N 33°58' E 132°43'611.3
2018-Jan-19 10:30N 33°54' E 132°38'4210.7
2018-Jan-19 06:36N 33°28' E 131°59'3 9.9
2018-Jan-19 06:17N 33°26' E 131°56'310.0
2018-Jan-19 06:00N 33°24' E 131°53'610.4
2018-Jan-19 05:23N 33°21' E 131°47'410.8
2018-Jan-19 04:58N 33°18' E 131°42'3 3.9
2018-Jan-19 04:08N 33°16' E 131°40'0 0.0
2018-Jan-19 03:59N 33°16' E 131°40'0 0.0
2018-Jan-19 03:23N 33°16' E 131°40'0 0.0
2018-Jan-19 02:58N 33°16' E 131°40'0 0.0
2018-Jan-19 02:29N 33°16' E 131°40'0 0.0
2018-Jan-19 02:00N 33°16' E 131°40'0 0.0
2018-Jan-19 01:30N 33°16' E 131°40'0 0.0
2018-Jan-19 01:00N 33°16' E 131°40'0 0.0
2018-Jan-19 00:28N 33°16' E 131°40'0 0.0
2018-Jan-18 23:59N 33°16' E 131°40'0 0.0
2018-Jan-18 23:23N 33°16' E 131°40'0 0.0
2018-Jan-18 22:47N 33°16' E 131°40'0 0.0
2018-Jan-18 21:36N 33°16' E 131°40'0 2.5
2018-Jan-18 21:30N 33°16' E 131°40'611.1
2018-Jan-18 21:00N 33°22' E 131°41'1 1.7
2018-Jan-18 20:23N 33°23' E 131°41'0 0.0
2018-Jan-18 19:59N 33°23' E 131°41'0 0.0
2018-Jan-18 19:29N 33°23' E 131°41'0 0.0
2018-Jan-18 18:59N 33°23' E 131°41'0 0.0
2018-Jan-18 18:29N 33°23' E 131°41'0 0.0
2018-Jan-18 17:59N 33°23' E 131°41'0 0.0
2018-Jan-18 17:29N 33°23' E 131°41'0 0.0
2018-Jan-18 16:59N 33°23' E 131°41'0 0.0
2018-Jan-18 16:29N 33°23' E 131°41'0 0.0
2018-Jan-18 15:59N 33°23' E 131°41'0 0.0
2018-Jan-18 15:29N 33°23' E 131°41'0 0.0
2018-Jan-18 14:59N 33°23' E 131°41'0 0.0
2018-Jan-18 14:29N 33°23' E 131°41'0 0.0
2018-Jan-18 13:53N 33°23' E 131°41'0 0.0
2018-Jan-18 13:17N 33°23' E 131°41'0 0.0
2018-Jan-18 12:59N 33°23' E 131°41'0 0.0
2018-Jan-18 12:29N 33°23' E 131°41'0 0.0
2018-Jan-18 11:59N 33°23' E 131°41'0 0.0
2018-Jan-18 11:29N 33°23' E 131°41'0 0.0
2018-Jan-18 10:59N 33°23' E 131°41'0 0.0
2018-Jan-18 10:29N 33°23' E 131°41'0 0.0
2018-Jan-18 09:58N 33°23' E 131°41'0 0.0
2018-Jan-18 09:23N 33°23' E 131°41'0 0.0
2018-Jan-18 08:53N 33°23' E 131°41'0 0.0
2018-Jan-18 08:26N 33°23' E 131°41'0 0.0
2018-Jan-18 07:59N 33°23' E 131°41'0 0.0
2018-Jan-18 07:29N 33°23' E 131°41'0 0.0
2018-Jan-18 06:53N 33°23' E 131°41'0 0.0
2018-Jan-18 06:29N 33°23' E 131°41'0 0.0
2018-Jan-18 05:59N 33°23' E 131°41'0 0.0
2018-Jan-18 05:22N 33°23' E 131°41'0 0.0
2018-Jan-18 04:59N 33°23' E 131°41'0 0.0
2018-Jan-18 04:29N 33°23' E 131°41'0 0.0
2018-Jan-18 03:59N 33°23' E 131°41'0 0.0
2018-Jan-18 03:29N 33°23' E 131°41'0 0.0
2018-Jan-18 02:59N 33°23' E 131°41'0 0.0
2018-Jan-18 02:29N 33°23' E 131°41'0 0.1
2018-Jan-18 01:59N 33°23' E 131°41'0 0.0
2018-Jan-18 01:29N 33°23' E 131°41'0 0.1
2018-Jan-18 00:22N 33°23' E 131°41'410.6
2018-Jan-17 23:57N 33°26' E 131°45'  
2018-Jan-12 15:00N 33°54' E 130°53'0 0.0
2018-Jan-12 14:30N 33°54' E 130°53'0 0.0
2018-Jan-12 14:01N 33°54' E 130°53'0 0.0
2018-Jan-12 13:31N 33°54' E 130°53'  
Track history (hours):
 
Tides and Currents Weather Stations Pressure Air Temp Water Temp Dewpoint Dewpoint Depression Visibility Wind Speed Wind Dir Waves Ship Positions

Daitoku Maru

Last reported at 2018-Jan-22 13:16 UTC. Time now 2018-Jan-23 00:08 UTC.
Position N 34°03' E 132°47'.

Length 63 m; draft 3.5 m.

Type: Cargo ship. MMSI: 431001826.

Date/timePositionNaut miles runAvg speedWind from/ knotsBaromVisibWave heightAir tempDewpointWater temp
2018-Jan-22 13:16N 34°03' E 132°47'311.7
2018-Jan-22 13:00N 34°01' E 132°45'511.0
2018-Jan-22 12:30N 33°56' E 132°41'1110.8
2018-Jan-22 11:28N 33°49' E 132°31'510.6
2018-Jan-22 10:58N 33°46' E 132°26'510.3
2018-Jan-22 10:29N 33°43' E 132°21'2310.1
2018-Jan-22 08:13N 33°30' E 131°58'2 9.8
2018-Jan-22 08:00N 33°29' E 131°56'5 9.9
2018-Jan-22 07:29N 33°27' E 131°50'610.1
2018-Jan-22 06:53N 33°23' E 131°45'410.3
2018-Jan-22 06:30N 33°20' E 131°42'4 0.9
2018-Jan-22 02:10N 33°16' E 131°40'0 0.1
2018-Jan-22 01:49N 33°16' E 131°40'0 0.0
2018-Jan-22 01:21N 33°16' E 131°40'0 0.0
2018-Jan-22 00:58N 33°16' E 131°40'0 0.0
2018-Jan-22 00:04N 33°16' E 131°40'0 0.0
2018-Jan-21 23:21N 33°16' E 131°40'0 0.0
2018-Jan-21 22:42N 33°16' E 131°40'0 0.0
2018-Jan-21 19:41N 33°16' E 131°40'0 0.0
2018-Jan-21 19:30N 33°16' E 131°40'0 0.0
2018-Jan-21 18:52N 33°16' E 131°40'0 0.5
2018-Jan-21 18:28N 33°16' E 131°40'1 3.0
2018-Jan-21 17:59N 33°17' E 131°39'3 5.2
2018-Jan-21 17:30N 33°15' E 131°41'0 0.0
2018-Jan-20 23:47N 33°15' E 131°41'2 4.7
2018-Jan-20 23:27N 33°17' E 131°41'5 9.9
2018-Jan-20 22:59N 33°21' E 131°41'0 0.7
2018-Jan-20 22:25N 33°22' E 131°41'0 0.0
2018-Jan-20 21:43N 33°22' E 131°41'0 0.0
2018-Jan-20 21:25N 33°22' E 131°41'0 0.0
2018-Jan-20 20:55N 33°22' E 131°41'0 0.0
2018-Jan-20 19:55N 33°22' E 131°41'0 0.0
2018-Jan-20 17:25N 33°22' E 131°41'0 0.0
2018-Jan-20 16:55N 33°22' E 131°41'0 0.0
2018-Jan-20 15:25N 33°22' E 131°41'0 0.0
2018-Jan-20 14:55N 33°22' E 131°41'0 0.1
2018-Jan-20 14:31N 33°22' E 131°41'1011.0
2018-Jan-20 13:38N 33°25' E 131°52'2611.2
2018-Jan-20 11:19N 33°41' E 132°17'511.4
2018-Jan-20 10:51N 33°44' E 132°22'511.6
2018-Jan-20 10:23N 33°47' E 132°27'511.7
2018-Jan-20 10:00N 33°50' E 132°32'611.9
2018-Jan-20 09:31N 33°54' E 132°37'612.8
2018-Jan-20 09:00N 33°58' E 132°43'4 0.2
2018-Jan-19 11:21N 34°01' E 132°46'411.9
2018-Jan-19 11:00N 33°58' E 132°43'611.3
2018-Jan-19 10:30N 33°54' E 132°38'4210.7
2018-Jan-19 06:36N 33°28' E 131°59'3 9.9
2018-Jan-19 06:17N 33°26' E 131°56'310.0
2018-Jan-19 06:00N 33°24' E 131°53'610.4
2018-Jan-19 05:23N 33°21' E 131°47'410.8
2018-Jan-19 04:58N 33°18' E 131°42'3 3.9
2018-Jan-19 04:08N 33°16' E 131°40'0 0.0
2018-Jan-19 03:59N 33°16' E 131°40'0 0.0
2018-Jan-19 03:23N 33°16' E 131°40'0 0.0
2018-Jan-19 02:58N 33°16' E 131°40'0 0.0
2018-Jan-19 02:29N 33°16' E 131°40'0 0.0
2018-Jan-19 02:00N 33°16' E 131°40'0 0.0
2018-Jan-19 01:30N 33°16' E 131°40'0 0.0
2018-Jan-19 01:00N 33°16' E 131°40'0 0.0
2018-Jan-19 00:28N 33°16' E 131°40'0 0.0
2018-Jan-18 23:59N 33°16' E 131°40'0 0.0
2018-Jan-18 23:23N 33°16' E 131°40'0 0.0
2018-Jan-18 22:47N 33°16' E 131°40'0 0.0
2018-Jan-18 21:36N 33°16' E 131°40'0 2.5
2018-Jan-18 21:30N 33°16' E 131°40'611.1
2018-Jan-18 21:00N 33°22' E 131°41'1 1.7
2018-Jan-18 20:23N 33°23' E 131°41'0 0.0
2018-Jan-18 19:59N 33°23' E 131°41'0 0.0
2018-Jan-18 19:29N 33°23' E 131°41'0 0.0
2018-Jan-18 18:59N 33°23' E 131°41'0 0.0
2018-Jan-18 18:29N 33°23' E 131°41'0 0.0
2018-Jan-18 17:59N 33°23' E 131°41'0 0.0
2018-Jan-18 17:29N 33°23' E 131°41'0 0.0
2018-Jan-18 16:59N 33°23' E 131°41'0 0.0
2018-Jan-18 16:29N 33°23' E 131°41'0 0.0
2018-Jan-18 15:59N 33°23' E 131°41'0 0.0
2018-Jan-18 15:29N 33°23' E 131°41'0 0.0
2018-Jan-18 14:59N 33°23' E 131°41'0 0.0
2018-Jan-18 14:29N 33°23' E 131°41'0 0.0
2018-Jan-18 13:53N 33°23' E 131°41'0 0.0
2018-Jan-18 13:17N 33°23' E 131°41'0 0.0
2018-Jan-18 12:59N 33°23' E 131°41'0 0.0
2018-Jan-18 12:29N 33°23' E 131°41'0 0.0
2018-Jan-18 11:59N 33°23' E 131°41'0 0.0
2018-Jan-18 11:29N 33°23' E 131°41'0 0.0
2018-Jan-18 10:59N 33°23' E 131°41'0 0.0
2018-Jan-18 10:29N 33°23' E 131°41'0 0.0
2018-Jan-18 09:58N 33°23' E 131°41'0 0.0
2018-Jan-18 09:23N 33°23' E 131°41'0 0.0
2018-Jan-18 08:53N 33°23' E 131°41'0 0.0
2018-Jan-18 08:26N 33°23' E 131°41'0 0.0
2018-Jan-18 07:59N 33°23' E 131°41'0 0.0
2018-Jan-18 07:29N 33°23' E 131°41'0 0.0
2018-Jan-18 06:53N 33°23' E 131°41'0 0.0
2018-Jan-18 06:29N 33°23' E 131°41'0 0.0
2018-Jan-18 05:59N 33°23' E 131°41'0 0.0
2018-Jan-18 05:22N 33°23' E 131°41'0 0.0
2018-Jan-18 04:59N 33°23' E 131°41'0 0.0
2018-Jan-18 04:29N 33°23' E 131°41'0 0.0
2018-Jan-18 03:59N 33°23' E 131°41'0 0.0
2018-Jan-18 03:29N 33°23' E 131°41'0 0.0
2018-Jan-18 02:59N 33°23' E 131°41'0 0.0
2018-Jan-18 02:29N 33°23' E 131°41'0 0.1
2018-Jan-18 01:59N 33°23' E 131°41'0 0.0
2018-Jan-18 01:29N 33°23' E 131°41'0 0.1
2018-Jan-18 00:22N 33°23' E 131°41'410.6
2018-Jan-17 23:57N 33°26' E 131°45'  
2018-Jan-12 15:00N 33°54' E 130°53'0 0.0
2018-Jan-12 14:30N 33°54' E 130°53'0 0.0
2018-Jan-12 14:01N 33°54' E 130°53'0 0.0
2018-Jan-12 13:31N 33°54' E 130°53'  

Dump ship's entire track history